Time;durP1;ratioP1;P1;durP2;ratioP2;P2;SDS_P1;SDS_P2;PMS_P1;PMS_P2;Temp;Humidity;BMP_temperature;BMP_pressure;BME280_temperature;BME280_humidity;BME280_pressure;Samples;Min_cycle;Max_cycle;Signal;HPM_P1;HPM_P2
2022/12/30 00:00:15;;;;;;;22.25;13.80;;;20.60;62.10;;;;;;5032401;28;20063;-69
2022/12/30 00:02:41;;;;;;;23.33;14.32;;;20.50;62.20;;;;;;5067743;28;20041;-69
2022/12/30 00:05:07;;;;;;;30.38;15.55;;;20.40;62.50;;;;;;5052212;28;20045;-69
2022/12/30 00:07:34;;;;;;;25.73;14.35;;;20.50;62.50;;;;;;5019605;28;20049;-69
2022/12/30 00:10:01;;;;;;;21.33;14.13;;;20.50;62.50;;;;;;5085830;28;20747;-70
2022/12/30 00:35:07;;;;;;;20.85;12.68;;;20.50;62.10;;;;;;5087891;28;20058;-69
2022/12/30 00:37:33;;;;;;;24.17;12.57;;;20.60;62.50;;;;;;5070643;28;20440;-70
2022/12/30 00:39:59;;;;;;;22.42;12.85;;;20.40;62.40;;;;;;5070898;28;20028;-69
2022/12/30 00:45:09;;;;;;;19.17;12.93;;;20.40;62.60;;;;;;5070855;28;20489;-69
2022/12/30 00:47:35;;;;;;;20.02;12.18;;;20.30;62.50;;;;;;5086720;28;20145;-69
2022/12/30 00:58:17;;;;;;;23.60;13.80;;;20.30;62.80;;;;;;5110995;28;20039;-69
2022/12/30 01:00:43;;;;;;;29.63;14.63;;;20.30;62.70;;;;;;5100502;28;20032;-69
2022/12/30 01:03:08;;;;;;;22.00;14.13;;;20.30;62.60;;;;;;5089328;28;20492;-69
2022/12/30 01:05:38;;;;;;;22.52;14.20;;;20.20;62.40;;;;;;5083395;28;20056;-69
2022/12/30 01:08:04;;;;;;;21.10;13.98;;;20.20;62.40;;;;;;5069442;28;20036;-69
2022/12/30 01:10:30;;;;;;;23.83;13.50;;;20.10;62.70;;;;;;5069565;28;20472;-69
2022/12/30 01:12:56;;;;;;;22.15;13.93;;;20.20;62.80;;;;;;5070815;28;20033;-70
2022/12/30 01:15:22;;;;;;;19.95;12.82;;;20.30;63.10;;;;;;5067225;28;20029;-69
2022/12/30 01:17:48;;;;;;;22.27;12.40;;;20.20;62.80;;;;;;5070556;28;20055;-69
2022/12/30 01:20:14;;;;;;;20.55;12.52;;;20.20;62.50;;;;;;5070661;28;20484;-69
2022/12/30 01:22:40;;;;;;;22.40;13.20;;;20.30;63.00;;;;;;5070799;28;20071;-69
2022/12/30 01:25:06;;;;;;;21.38;13.27;;;20.30;62.70;;;;;;5064430;28;20021;-69
2022/12/30 01:27:32;;;;;;;20.23;12.38;;;20.20;62.50;;;;;;5050385;28;20675;-69
2022/12/30 01:29:59;;;;;;;23.08;13.50;;;20.20;62.50;;;;;;5066494;28;20036;-69
2022/12/30 01:32:28;;;;;;;21.27;12.63;;;20.30;62.50;;;;;;5065858;28;20123;-70
2022/12/30 01:34:56;;;;;;;22.10;13.60;;;20.30;62.60;;;;;;5062346;28;20469;-69
2022/12/30 01:37:22;;;;;;;18.88;10.70;;;20.10;62.60;;;;;;5032303;28;20044;-69
2022/12/30 01:39:49;;;;;;;19.83;12.60;;;20.20;62.50;;;;;;5050388;28;20446;-69
2022/12/30 01:42:24;;;;;;;20.15;12.32;;;20.20;62.70;;;;;;5050236;28;20126;-69
2022/12/30 01:44:52;;;;;;;15.68;11.50;;;20.00;62.90;;;;;;5050231;28;20054;-69
2022/12/30 01:47:57;;;;;;;17.20;11.27;;;20.00;62.90;;;;;;5045431;28;20369;-69
2022/12/30 01:50:42;;;;;;;18.55;11.18;;;20.00;63.20;;;;;;5050219;28;20029;-70
2022/12/30 01:53:15;;;;;;;21.42;11.60;;;20.00;63.00;;;;;;5050286;28;20060;-69
2022/12/30 01:55:45;;;;;;;18.52;11.77;;;20.00;63.40;;;;;;5055999;28;20032;-69
2022/12/30 01:58:17;;;;;;;20.17;11.95;;;19.90;63.50;;;;;;5034400;28;20162;-69
2022/12/30 02:00:44;;;;;;;22.00;12.70;;;20.00;63.40;;;;;;5067221;28;20078;-69
2022/12/30 02:03:11;;;;;;;18.63;11.93;;;19.90;63.40;;;;;;5019656;28;20071;-69
2022/12/30 02:05:40;;;;;;;18.75;10.90;;;20.00;63.40;;;;;;5063123;28;20051;-69
2022/12/30 02:08:18;;;;;;;20.83;11.32;;;20.00;63.30;;;;;;5053542;28;20086;-69
2022/12/30 02:10:51;;;;;;;17.83;12.13;;;20.00;63.40;;;;;;5053685;28;20389;-70
2022/12/30 02:13:18;;;;;;;18.88;11.20;;;20.00;63.20;;;;;;5053300;28;20071;-70
2022/12/30 02:15:50;;;;;;;18.50;11.82;;;19.90;63.30;;;;;;5056104;28;20056;-69
2022/12/30 02:18:38;;;;;;;17.33;11.73;;;19.90;63.40;;;;;;5053782;28;20132;-69
2022/12/30 02:21:07;;;;;;;17.30;12.18;;;19.90;63.30;;;;;;5053470;28;20033;-69
2022/12/30 02:23:57;;;;;;;18.00;10.90;;;20.00;63.30;;;;;;5019035;28;20036;-69
2022/12/30 02:27:01;;;;;;;18.17;11.60;;;20.00;63.40;;;;;;5035519;28;20041;-69
2022/12/30 02:29:52;;;;;;;16.10;10.25;;;19.90;63.30;;;;;;5053229;28;20021;-69
2022/12/30 02:32:36;;;;;;;15.95;9.85;;;20.00;63.30;;;;;;5053148;28;20029;-69
2022/12/30 02:35:34;;;;;;;18.50;11.38;;;20.10;63.40;;;;;;5052318;28;20028;-69
2022/12/30 02:38:18;;;;;;;18.83;11.15;;;20.10;63.20;;;;;;5072420;28;20094;-69
2022/12/30 02:47:04;;;;;;;20.10;10.68;;;20.00;63.60;;;;;;5009422;28;20082;-70
2022/12/30 02:49:31;;;;;;;15.32;10.35;;;19.90;63.70;;;;;;5010047;28;20038;-69
2022/12/30 02:52:18;;;;;;;15.95;10.93;;;19.90;63.60;;;;;;5010327;28;20041;-69
2022/12/30 02:54:48;;;;;;;17.13;10.40;;;19.80;63.70;;;;;;4993514;28;20062;-70
2022/12/30 02:57:40;;;;;;;16.13;10.00;;;19.90;63.90;;;;;;5013054;28;20532;-70
2022/12/30 03:06:03;;;;;;;17.80;10.47;;;19.80;64.30;;;;;;4951858;28;20050;-71
2022/12/30 03:08:38;;;;;;;12.55;9.38;;;19.80;64.10;;;;;;4934271;28;20400;-70
2022/12/30 03:11:16;;;;;;;15.15;10.32;;;19.70;64.10;;;;;;4950597;28;20043;-70
2022/12/30 03:14:03;;;;;;;18.02;10.48;;;19.80;63.90;;;;;;4951898;28;20059;-71
2022/12/30 03:16:41;;;;;;;12.07;9.73;;;19.70;63.50;;;;;;4950753;28;20058;-70
2022/12/30 03:19:18;;;;;;;12.63;9.00;;;19.90;63.30;;;;;;4948133;28;20458;-70
2022/12/30 03:21:45;;;;;;;14.95;9.85;;;19.80;63.00;;;;;;4974091;28;20181;-71
2022/12/30 03:27:05;;;;;;;14.93;9.85;;;19.90;62.60;;;;;;4990220;28;20077;-70
2022/12/30 03:30:00;;;;;;;17.30;10.30;;;19.90;62.30;;;;;;4973942;28;20038;-71
2022/12/30 03:32:27;;;;;;;23.02;11.75;;;19.90;62.20;;;;;;4976052;28;20534;-71
2022/12/30 03:34:54;;;;;;;16.65;10.80;;;19.80;61.90;;;;;;4990071;28;20475;-70
2022/12/30 03:37:28;;;;;;;15.35;10.55;;;19.90;61.90;;;;;;5030606;28;20052;-71
2022/12/30 03:40:01;;;;;;;16.88;11.13;;;19.80;61.80;;;;;;5051819;28;20036;-71
2022/12/30 03:42:28;;;;;;;14.73;10.32;;;19.80;61.70;;;;;;5051775;28;20402;-70
2022/12/30 03:44:54;;;;;;;14.40;10.38;;;19.80;61.70;;;;;;5054009;28;20024;-71
2022/12/30 03:47:20;;;;;;;18.40;9.98;;;19.70;61.70;;;;;;5067953;28;20036;-71
2022/12/30 03:49:46;;;;;;;17.65;10.95;;;19.60;61.50;;;;;;5069527;28;20457;-71
2022/12/30 03:52:15;;;;;;;16.00;10.18;;;19.60;61.30;;;;;;5051518;28;20035;-70
2022/12/30 03:54:42;;;;;;;16.83;10.00;;;19.60;61.40;;;;;;5061555;28;20488;-71
2022/12/30 03:57:08;;;;;;;16.65;9.57;;;19.70;61.40;;;;;;5070480;28;20115;-70
2022/12/30 03:59:34;;;;;;;16.15;10.50;;;19.60;61.20;;;;;;5067684;28;20032;-69
2022/12/30 04:02:00;;;;;;;16.42;10.55;;;19.60;61.00;;;;;;5052876;28;20052;-70
2022/12/30 04:04:27;;;;;;;14.60;9.40;;;19.70;60.90;;;;;;5051191;28;20032;-70
2022/12/30 04:06:53;;;;;;;15.88;10.10;;;19.60;60.70;;;;;;5049969;28;20029;-71
2022/12/30 04:09:19;;;;;;;15.10;10.02;;;19.70;60.60;;;;;;5049740;28;20052;-70
2022/12/30 04:11:45;;;;;;;16.48;10.32;;;19.70;60.60;;;;;;5050215;28;20032;-70
2022/12/30 04:14:11;;;;;;;13.88;10.27;;;19.70;60.60;;;;;;5050226;28;20036;-72
2022/12/30 04:16:37;;;;;;;14.40;10.05;;;19.70;60.50;;;;;;5061620;28;20033;-71
2022/12/30 04:19:04;;;;;;;14.25;10.50;;;19.70;60.40;;;;;;5070693;28;20032;-70
2022/12/30 04:21:30;;;;;;;16.30;10.80;;;19.70;60.20;;;;;;5070887;28;20374;-71
2022/12/30 04:23:55;;;;;;;15.32;10.38;;;19.80;60.00;;;;;;5069384;28;20462;-70
2022/12/30 04:26:21;;;;;;;17.00;10.98;;;19.70;59.90;;;;;;5071155;28;20044;-70
2022/12/30 04:28:47;;;;;;;18.40;9.88;;;19.80;59.70;;;;;;5070651;28;20074;-70
2022/12/30 04:31:13;;;;;;;15.85;10.05;;;19.70;59.60;;;;;;5061245;28;20359;-70
2022/12/30 04:33:40;;;;;;;15.05;10.45;;;19.70;59.40;;;;;;5051075;28;20463;-71
2022/12/30 04:36:06;;;;;;;13.27;9.88;;;19.70;59.30;;;;;;5050453;28;20052;-70
2022/12/30 04:38:33;;;;;;;17.92;10.68;;;19.80;59.40;;;;;;5050831;28;20036;-70
2022/12/30 04:40:59;;;;;;;16.60;10.80;;;19.60;59.20;;;;;;5050637;28;20085;-72
2022/12/30 04:43:25;;;;;;;15.40;11.05;;;19.70;59.30;;;;;;5053719;28;20137;-70
2022/12/30 04:45:52;;;;;;;16.77;11.23;;;19.70;59.40;;;;;;5063573;28;20064;-71
2022/12/30 04:48:18;;;;;;;17.02;10.98;;;19.60;59.30;;;;;;5050618;28;20124;-71
2022/12/30 04:50:45;;;;;;;17.77;11.27;;;19.60;59.30;;;;;;5053222;28;20032;-71
2022/12/30 04:53:11;;;;;;;14.18;10.27;;;19.60;59.30;;;;;;5050542;28;20527;-71
2022/12/30 04:55:38;;;;;;;15.40;10.88;;;19.50;59.20;;;;;;5050412;28;20033;-71
2022/12/30 04:58:05;;;;;;;18.92;11.75;;;19.50;59.30;;;;;;5057744;28;20047;-70
2022/12/30 05:00:32;;;;;;;22.42;12.13;;;19.60;59.30;;;;;;5046922;28;20032;-69
2022/12/30 05:02:58;;;;;;;17.92;11.60;;;19.60;59.20;;;;;;5066309;28;20443;-70
2022/12/30 05:05:24;;;;;;;15.63;10.52;;;19.60;59.20;;;;;;5059299;28;20033;-70
2022/12/30 05:07:50;;;;;;;20.50;11.27;;;19.50;59.00;;;;;;5042039;28;20036;-71
2022/12/30 05:10:16;;;;;;;20.38;10.93;;;19.60;58.90;;;;;;5063898;28;20547;-70
2022/12/30 05:12:42;;;;;;;17.55;11.13;;;19.50;59.00;;;;;;4998804;28;20056;-70
2022/12/30 05:15:09;;;;;;;17.27;11.07;;;19.50;59.10;;;;;;5050864;28;20028;-70
2022/12/30 05:17:35;;;;;;;14.45;10.75;;;19.50;59.80;;;;;;5032960;28;20029;-70
2022/12/30 05:20:01;;;;;;;18.85;11.63;;;19.50;60.60;;;;;;5050646;28;20029;-70
2022/12/30 05:22:27;;;;;;;17.02;11.50;;;19.40;60.70;;;;;;5032938;28;20040;-69
2022/12/30 05:27:38;;;;;;;19.75;11.80;;;19.50;60.80;;;;;;5050592;28;20025;-69
2022/12/30 05:30:05;;;;;;;17.08;11.18;;;19.50;60.70;;;;;;5015140;28;20045;-70
2022/12/30 05:32:30;;;;;;;19.05;12.05;;;19.50;60.80;;;;;;5050388;28;20078;-69
2022/12/30 05:34:57;;;;;;;15.75;11.82;;;19.50;60.80;;;;;;5052763;28;20024;-70
2022/12/30 05:37:23;;;;;;;19.13;11.63;;;19.60;60.90;;;;;;5054325;28;20036;-69
2022/12/30 05:39:48;;;;;;;20.65;11.65;;;19.60;60.90;;;;;;5054276;28;20040;-69
2022/12/30 05:42:14;;;;;;;16.38;11.23;;;19.60;60.80;;;;;;5054168;28;20474;-67
2022/12/30 05:44:40;;;;;;;22.80;12.07;;;19.60;61.00;;;;;;5054246;28;20040;-69
2022/12/30 05:47:06;;;;;;;15.40;10.65;;;19.50;61.10;;;;;;5054252;28;20037;-70
2022/12/30 05:49:32;;;;;;;17.65;11.63;;;19.60;61.20;;;;;;5053956;28;20036;-69
2022/12/30 05:51:58;;;;;;;19.45;11.93;;;19.50;61.40;;;;;;5054019;28;20104;-70
2022/12/30 05:54:24;;;;;;;17.95;11.35;;;19.40;61.50;;;;;;5018504;28;20045;-69
2022/12/30 05:56:50;;;;;;;19.15;12.52;;;19.50;61.80;;;;;;5053747;28;20553;-70
2022/12/30 05:59:16;;;;;;;17.92;11.35;;;19.50;61.90;;;;;;5053942;28;20052;-69
2022/12/30 06:01:42;;;;;;;22.30;12.35;;;19.40;62.10;;;;;;5053453;28;20067;-70
2022/12/30 06:04:08;;;;;;;16.60;11.45;;;19.40;62.10;;;;;;5053925;28;20064;-69
2022/12/30 06:06:34;;;;;;;19.98;12.45;;;19.30;62.20;;;;;;5038433;28;20161;-70
2022/12/30 06:09:00;;;;;;;16.45;11.65;;;19.40;62.40;;;;;;5053601;28;20207;-71
2022/12/30 06:11:26;;;;;;;19.30;11.55;;;19.40;62.70;;;;;;5053684;28;20166;-69
2022/12/30 06:13:52;;;;;;;15.27;11.30;;;19.40;62.80;;;;;;5053991;28;20033;-69
2022/12/30 06:16:18;;;;;;;22.23;12.48;;;19.40;62.60;;;;;;5053360;28;20041;-69
2022/12/30 06:18:44;;;;;;;20.70;13.35;;;19.40;62.70;;;;;;5074884;28;20035;-70
2022/12/30 06:21:10;;;;;;;24.45;14.15;;;19.30;63.30;;;;;;5092430;28;20103;-70
2022/12/30 06:23:36;;;;;;;20.58;12.73;;;19.40;63.00;;;;;;5092804;28;20051;-70
2022/12/30 06:26:03;;;;;;;18.52;12.88;;;19.40;62.80;;;;;;5093250;28;20072;-71
2022/12/30 06:28:30;;;;;;;15.43;10.70;;;19.30;57.20;;;;;;5093525;28;20076;-68
2022/12/30 06:30:56;;;;;;;13.68;10.63;;;19.30;51.40;;;;;;5093360;28;20119;-68
2022/12/30 06:33:23;;;;;;;15.00;10.38;;;19.40;49.40;;;;;;5075161;28;20043;-71
2022/12/30 06:35:49;;;;;;;15.40;10.38;;;19.60;48.40;;;;;;5075407;28;20081;-71
2022/12/30 06:38:15;;;;;;;17.33;10.23;;;19.60;47.50;;;;;;5093297;28;20549;-72
2022/12/30 06:40:41;;;;;;;10.48;7.95;;;19.70;47.30;;;;;;5056981;28;20036;-70
2022/12/30 06:43:07;;;;;;;13.35;9.32;;;19.70;46.50;;;;;;5093475;28;20039;-71
2022/12/30 06:45:34;;;;;;;18.13;13.18;;;19.70;46.40;;;;;;5092668;28;20032;-70
2022/12/30 06:48:00;;;;;;;14.40;11.05;;;19.70;46.10;;;;;;5093152;28;20036;-70
2022/12/30 06:50:26;;;;;;;13.93;10.38;;;19.80;46.90;;;;;;5074790;28;20032;-69
2022/12/30 06:52:51;;;;;;;13.48;9.15;;;19.70;46.00;;;;;;5093375;28;20047;-69
2022/12/30 06:55:17;;;;;;;15.85;10.23;;;19.80;46.30;;;;;;5074670;28;20046;-69
2022/12/30 06:57:43;;;;;;;13.90;8.52;;;19.80;47.40;;;;;;5092905;28;20028;-68
2022/12/30 07:00:10;;;;;;;16.60;11.02;;;19.80;45.80;;;;;;5092743;28;20039;-72
2022/12/30 07:02:36;;;;;;;14.90;10.88;;;19.80;45.80;;;;;;5074796;28;20649;-70
2022/12/30 07:05:02;;;;;;;17.75;12.27;;;19.90;45.90;;;;;;5072796;28;20051;-70
2022/12/30 07:07:28;;;;;;;19.20;13.20;;;20.00;45.90;;;;;;5073408;28;20040;-71
2022/12/30 07:09:54;;;;;;;3.33;3.03;;;20.10;48.20;;;;;;5060391;28;20056;-73
2022/12/30 07:12:20;;;;;;;17.67;10.50;;;20.10;52.20;;;;;;5061504;28;20039;-73
2022/12/30 07:14:46;;;;;;;14.15;9.02;;;20.40;60.60;;;;;;5054684;28;20032;-76
2022/12/30 07:17:12;;;;;;;22.77;12.13;;;20.50;59.80;;;;;;5072192;28;20040;-74
2022/12/30 07:19:38;;;;;;;12.50;8.70;;;20.60;60.00;;;;;;5016983;28;20068;-74
2022/12/30 07:22:04;;;;;;;16.95;11.75;;;20.70;59.60;;;;;;5052176;28;20056;-75
2022/12/30 07:24:30;;;;;;;17.20;10.93;;;20.70;58.60;;;;;;5056513;28;20385;-73
2022/12/30 07:26:56;;;;;;;18.20;9.75;;;20.80;57.80;;;;;;5078140;28;20032;-78
2022/12/30 07:29:22;;;;;;;19.00;9.98;;;20.80;57.30;;;;;;5055317;28;20381;-77
2022/12/30 07:31:48;;;;;;;15.13;9.27;;;20.90;57.50;;;;;;5071297;28;20098;-76
2022/12/30 07:34:14;;;;;;;16.98;10.35;;;20.80;57.00;;;;;;5068007;28;20029;-77
2022/12/30 07:36:40;;;;;;;15.75;10.25;;;20.90;56.40;;;;;;5052087;28;20033;-80
2022/12/30 07:39:06;;;;;;;19.48;11.40;;;21.00;55.50;;;;;;5052185;28;20363;-78
2022/12/30 07:41:33;;;;;;;21.25;12.75;;;20.90;55.10;;;;;;5054758;28;20025;-74
2022/12/30 07:44:01;;;;;;;21.23;12.50;;;21.10;53.70;;;;;;5051851;28;20028;-73
2022/12/30 07:46:27;;;;;;;23.08;12.95;;;20.90;53.70;;;;;;5036729;28;20132;-72
2022/12/30 07:48:53;;;;;;;25.33;13.85;;;20.80;54.40;;;;;;5016364;28;20094;-74
2022/12/30 07:51:20;;;;;;;18.67;13.13;;;20.70;55.30;;;;;;5051247;28;20405;-74
2022/12/30 07:53:46;;;;;;;20.92;13.13;;;20.60;56.10;;;;;;5033922;28;20139;-74
2022/12/30 07:56:13;;;;;;;22.73;13.20;;;20.60;56.90;;;;;;5051299;28;20045;-74
2022/12/30 07:58:40;;;;;;;22.67;11.85;;;20.60;57.20;;;;;;5051189;28;20596;-74
2022/12/30 08:01:13;;;;;;;15.27;11.70;;;20.50;57.50;;;;;;5065792;28;20525;-73
2022/12/30 08:03:43;;;;;;;21.13;12.15;;;20.60;57.50;;;;;;5070730;28;20028;-72
2022/12/30 08:06:15;;;;;;;19.23;12.32;;;20.70;57.60;;;;;;5070959;28;20025;-73
2022/12/30 08:08:42;;;;;;;18.27;12.60;;;20.80;57.60;;;;;;5053039;28;20061;-73
2022/12/30 08:11:09;;;;;;;16.95;12.18;;;20.60;57.80;;;;;;5071052;28;20513;-73
2022/12/30 08:13:37;;;;;;;24.85;13.45;;;20.70;58.30;;;;;;5070264;28;20393;-74
2022/12/30 08:16:07;;;;;;;18.08;12.18;;;20.60;58.90;;;;;;5073244;28;20079;-72
2022/12/30 08:18:33;;;;;;;21.02;12.27;;;20.70;59.30;;;;;;5069656;28;20446;-72
2022/12/30 08:21:01;;;;;;;18.38;12.80;;;20.70;59.60;;;;;;5071233;28;20037;-72
2022/12/30 08:23:29;;;;;;;16.90;11.63;;;20.70;59.90;;;;;;5086729;28;20520;-72
2022/12/30 08:25:55;;;;;;;20.05;12.27;;;20.80;60.10;;;;;;5091346;28;20058;-72
2022/12/30 08:28:21;;;;;;;22.38;12.35;;;20.70;60.40;;;;;;5091032;28;20342;-70
2022/12/30 08:30:47;;;;;;;20.52;12.85;;;20.70;60.60;;;;;;5089622;28;20129;-72
2022/12/30 08:33:13;;;;;;;24.05;12.88;;;20.70;60.60;;;;;;5104299;28;20504;-72
2022/12/30 08:35:39;;;;;;;18.40;12.48;;;20.70;60.60;;;;;;5073551;28;20036;-73
2022/12/30 08:38:06;;;;;;;19.98;12.38;;;20.80;60.20;;;;;;5086292;28;20027;-72
2022/12/30 08:40:33;;;;;;;21.33;12.75;;;20.80;60.50;;;;;;5091081;28;20384;-73
2022/12/30 08:43:00;;;;;;;22.17;13.85;;;20.90;60.80;;;;;;5091008;28;20123;-72
2022/12/30 08:45:26;;;;;;;23.42;13.10;;;20.80;60.60;;;;;;5090892;28;20032;-72
2022/12/30 08:47:52;;;;;;;17.60;13.15;;;20.80;60.40;;;;;;5088291;28;20078;-71
2022/12/30 08:50:18;;;;;;;23.90;12.02;;;20.90;60.80;;;;;;5087212;28;20056;-70
2022/12/30 08:52:44;;;;;;;17.75;12.27;;;20.90;60.90;;;;;;5090494;28;20059;-74
2022/12/30 08:55:10;;;;;;;23.08;12.73;;;20.90;61.10;;;;;;5090434;28;20059;-72
2022/12/30 08:57:40;;;;;;;26.83;12.90;;;20.90;61.10;;;;;;5090557;28;20028;-71
2022/12/30 09:00:08;;;;;;;18.92;12.60;;;20.80;61.00;;;;;;5085330;28;20102;-73
2022/12/30 09:02:34;;;;;;;19.23;12.85;;;20.80;61.20;;;;;;5097530;28;20088;-73
2022/12/30 09:05:01;;;;;;;19.77;13.00;;;20.80;61.20;;;;;;5085713;28;20119;-73
2022/12/30 09:07:27;;;;;;;23.48;14.13;;;20.80;61.20;;;;;;5090639;28;20044;-73
2022/12/30 09:09:53;;;;;;;19.17;12.43;;;20.80;61.60;;;;;;5077087;28;20117;-71
2022/12/30 09:12:19;;;;;;;19.85;12.88;;;20.70;62.10;;;;;;5054435;28;20060;-72
2022/12/30 09:14:45;;;;;;;20.77;13.27;;;20.80;62.10;;;;;;5036570;28;20072;-71
2022/12/30 09:17:11;;;;;;;21.15;13.00;;;20.90;62.20;;;;;;5054721;28;20118;-73
2022/12/30 09:19:37;;;;;;;22.08;13.35;;;20.90;62.30;;;;;;5054268;28;20488;-72
2022/12/30 09:22:03;;;;;;;21.80;12.80;;;21.00;62.10;;;;;;5054320;28;20450;-72
2022/12/30 09:24:28;;;;;;;20.05;13.52;;;21.10;62.20;;;;;;5054167;28;20079;-72
2022/12/30 09:26:54;;;;;;;21.23;13.23;;;20.90;61.90;;;;;;5054636;28;20032;-72
2022/12/30 09:29:20;;;;;;;17.38;12.90;;;21.10;62.10;;;;;;5036594;28;20103;-73
2022/12/30 09:31:46;;;;;;;21.23;13.02;;;21.10;62.50;;;;;;5054346;28;20127;-72
2022/12/30 09:34:13;;;;;;;22.17;12.95;;;21.10;64.70;;;;;;5056092;28;20029;-72
2022/12/30 09:36:39;;;;;;;17.90;12.23;;;21.20;66.40;;;;;;5054195;28;20479;-73
2022/12/30 09:39:05;;;;;;;19.48;11.95;;;21.20;65.50;;;;;;5020021;28;20029;-73
2022/12/30 09:45:16;;;;;;;20.58;12.75;;;21.20;63.70;;;;;;5060494;28;20032;-74
2022/12/30 09:47:49;;;;;;;20.92;12.60;;;21.30;63.80;;;;;;5061276;28;20036;-72
2022/12/30 09:50:40;;;;;;;23.52;13.80;;;21.30;63.90;;;;;;5057541;28;20057;-74
2022/12/30 09:53:08;;;;;;;21.70;14.02;;;21.40;63.90;;;;;;5068380;28;20062;-74
2022/12/30 09:55:55;;;;;;;22.13;12.77;;;21.50;64.10;;;;;;5065431;28;20029;-72
2022/12/30 09:58:30;;;;;;;25.20;14.20;;;21.50;63.90;;;;;;5073622;28;20143;-73
2022/12/30 10:01:12;;;;;;;20.38;14.00;;;21.40;63.70;;;;;;5073951;28;20138;-73
2022/12/30 10:03:38;;;;;;;20.67;13.35;;;21.50;63.70;;;;;;5073467;28;20060;-71
2022/12/30 10:06:23;;;;;;;22.35;13.93;;;21.60;63.70;;;;;;5056092;28;20060;-73
2022/12/30 10:08:52;;;;;;;24.52;12.93;;;21.50;63.50;;;;;;5068353;28;20123;-73
2022/12/30 10:11:29;;;;;;;21.20;13.02;;;21.60;63.40;;;;;;5094013;28;20028;-73
2022/12/30 10:14:13;;;;;;;20.67;13.52;;;21.60;63.30;;;;;;5093912;28;20415;-72
2022/12/30 10:16:51;;;;;;;23.52;13.52;;;21.60;63.20;;;;;;5088547;28;20119;-71
2022/12/30 10:19:30;;;;;;;28.75;14.32;;;21.50;63.30;;;;;;5081454;28;20381;-73
2022/12/30 10:22:20;;;;;;;22.98;13.60;;;21.70;63.30;;;;;;5087016;28;20086;-73
2022/12/30 10:25:05;;;;;;;21.30;13.52;;;21.70;63.20;;;;;;5081410;28;20192;-73
2022/12/30 10:27:46;;;;;;;21.08;13.43;;;21.70;63.10;;;;;;5078466;28;20039;-72
2022/12/30 10:30:21;;;;;;;25.15;16.45;;;21.70;63.10;;;;;;5054170;28;20049;-72
2022/12/30 10:33:01;;;;;;;28.15;15.50;;;21.50;63.00;;;;;;5087576;28;20484;-73
2022/12/30 10:35:32;;;;;;;20.33;12.05;;;21.40;63.10;;;;;;5076618;28;20106;-73
2022/12/30 10:38:18;;;;;;;22.35;13.77;;;21.40;63.30;;;;;;5072876;28;20052;-73
2022/12/30 10:41:12;;;;;;;20.50;12.00;;;21.50;63.40;;;;;;5073062;28;20086;-73
2022/12/30 10:44:07;;;;;;;13.18;10.95;;;21.50;63.40;;;;;;5072979;28;20038;-71
2022/12/30 10:46:52;;;;;;;17.55;10.60;;;21.50;51.30;;;;;;5072904;28;20490;-73
2022/12/30 10:49:37;;;;;;;22.42;11.73;;;21.60;50.60;;;;;;5075438;28;20036;-72
2022/12/30 10:52:04;;;;;;;17.33;10.30;;;21.80;50.10;;;;;;5088309;28;20040;-73
2022/12/30 10:54:30;;;;;;;15.65;11.43;;;21.90;50.90;;;;;;5089153;28;20146;-72
2022/12/30 10:56:56;;;;;;;20.17;10.00;;;22.00;47.80;;;;;;5092441;28;20035;-74
2022/12/30 10:59:25;;;;;;;7.43;2.58;;;22.10;45.70;;;;;;5080110;28;20021;-75
2022/12/30 11:02:15;;;;;;;18.90;10.98;;;22.10;48.40;;;;;;5036254;28;20047;-71
2022/12/30 11:04:42;;;;;;;18.95;12.60;;;22.10;44.20;;;;;;5090866;28;20024;-71
2022/12/30 11:07:11;;;;;;;26.92;13.35;;;22.10;43.70;;;;;;5087444;28;20473;-70
2022/12/30 11:09:38;;;;;;;19.40;12.15;;;22.10;43.50;;;;;;5065151;28;20045;-69
2022/12/30 11:15:14;;;;;;;22.65;16.40;;;22.00;43.70;;;;;;5059210;28;20064;-71
2022/12/30 11:18:00;;;;;;;10.45;2.47;;;22.30;50.60;;;;;;5072047;28;20040;-71
2022/12/30 11:20:39;;;;;;;27.77;13.55;;;22.40;54.50;;;;;;5071460;28;20086;-72
2022/12/30 11:23:22;;;;;;;31.27;15.35;;;22.70;50.10;;;;;;5071536;28;20116;-72
2022/12/30 11:25:48;;;;;;;23.73;15.10;;;22.80;51.60;;;;;;5071527;28;20035;-69
2022/12/30 11:28:22;;;;;;;27.58;16.85;;;22.90;54.50;;;;;;5071593;28;20037;-71
2022/12/30 11:30:51;;;;;;;22.48;14.80;;;23.10;54.40;;;;;;5072076;28;20033;-74
2022/12/30 11:33:38;;;;;;;24.60;15.93;;;23.30;55.40;;;;;;5070988;28;20463;-72
2022/12/30 11:36:27;;;;;;;30.70;15.00;;;23.30;49.10;;;;;;5054561;28;20166;-72
2022/12/30 11:39:09;;;;;;;21.42;14.50;;;23.20;46.60;;;;;;5052448;28;20529;-73
2022/12/30 11:41:46;;;;;;;23.10;14.20;;;23.00;42.90;;;;;;5051992;28;20096;-73
2022/12/30 11:44:14;;;;;;;25.95;14.68;;;22.90;42.20;;;;;;5052090;28;20121;-74
2022/12/30 11:46:51;;;;;;;21.05;14.10;;;23.00;42.10;;;;;;5025036;28;20037;-72
2022/12/30 11:49:27;;;;;;;23.92;16.27;;;22.80;45.10;;;;;;5071951;28;20102;-73
2022/12/30 11:51:56;;;;;;;25.95;15.15;;;22.90;47.90;;;;;;5063484;28;20613;-74
2022/12/30 11:54:30;;;;;;;27.10;16.45;;;23.10;50.00;;;;;;5051729;28;20049;-71
2022/12/30 11:57:03;;;;;;;24.55;16.35;;;23.00;42.10;;;;;;5051329;28;20482;-74
2022/12/30 11:59:38;;;;;;;24.35;14.98;;;23.00;41.40;;;;;;5051387;28;20037;-70
2022/12/30 12:02:31;;;;;;;23.17;15.43;;;22.80;41.10;;;;;;5051602;28;20040;-73
2022/12/30 12:04:58;;;;;;;23.02;14.18;;;22.80;41.00;;;;;;5051523;28;20037;-72
2022/12/30 12:07:26;;;;;;;22.17;15.15;;;22.70;41.30;;;;;;5051361;28;20446;-73
2022/12/30 12:10:19;;;;;;;21.63;13.23;;;22.60;41.50;;;;;;5067774;28;20036;-71
2022/12/30 12:12:53;;;;;;;21.83;15.23;;;22.60;41.10;;;;;;5086634;28;20063;-71
2022/12/30 12:15:38;;;;;;;25.83;16.05;;;22.60;42.10;;;;;;5091453;28;20282;-79
2022/12/30 12:18:17;;;;;;;22.52;15.07;;;22.60;40.90;;;;;;5090388;28;20063;-71
2022/12/30 12:21:05;;;;;;;24.15;12.93;;;22.50;40.70;;;;;;5091415;28;20511;-71
2022/12/30 12:23:49;;;;;;;27.35;15.90;;;22.40;40.40;;;;;;5091172;28;20039;-76
2022/12/30 12:26:26;;;;;;;28.08;16.63;;;22.50;40.80;;;;;;5073205;28;20531;-70
2022/12/30 12:28:55;;;;;;;27.38;16.48;;;22.20;41.10;;;;;;5068626;28;20383;-72
2022/12/30 12:31:27;;;;;;;30.75;17.27;;;22.30;41.00;;;;;;5070836;28;20062;-72
2022/12/30 12:34:12;;;;;;;26.00;15.75;;;22.40;53.60;;;;;;5074333;28;20099;-70
2022/12/30 12:36:38;;;;;;;29.02;16.83;;;22.50;55.30;;;;;;5090666;28;20036;-72
2022/12/30 12:39:14;;;;;;;22.92;15.18;;;22.60;56.10;;;;;;5091319;28;20040;-69
2022/12/30 12:41:48;;;;;;;28.73;16.23;;;22.70;56.80;;;;;;5091357;28;20419;-72
2022/12/30 12:44:44;;;;;;;31.50;15.70;;;22.70;57.10;;;;;;5074327;28;20028;-72
2022/12/30 12:47:31;;;;;;;25.65;15.60;;;22.60;57.20;;;;;;5070861;28;20466;-71
2022/12/30 12:50:25;;;;;;;34.28;16.83;;;22.70;57.60;;;;;;5084181;28;20115;-73
2022/12/30 12:53:09;;;;;;;25.52;17.45;;;22.50;46.90;;;;;;5073611;28;20032;-73
2022/12/30 12:55:59;;;;;;;26.85;17.70;;;22.50;46.00;;;;;;5075964;28;20036;-71
2022/12/30 12:58:49;;;;;;;23.50;14.50;;;22.50;46.80;;;;;;5075089;28;20539;-70
2022/12/30 13:01:49;;;;;;;28.85;16.67;;;22.60;56.10;;;;;;4988675;28;20049;-71
2022/12/30 13:04:39;;;;;;;27.85;15.70;;;22.60;57.20;;;;;;4988624;28;20038;-71
2022/12/30 13:07:42;;;;;;;32.55;16.77;;;22.60;57.60;;;;;;4988829;28;20101;-72
2022/12/30 13:10:29;;;;;;;24.98;15.07;;;22.60;58.40;;;;;;4988543;28;20065;-72
2022/12/30 13:13:15;;;;;;;25.30;15.93;;;22.40;58.60;;;;;;4988545;28;20042;-73
2022/12/30 13:15:45;;;;;;;25.88;14.82;;;22.40;58.70;;;;;;4987656;28;20046;-77
2022/12/30 13:18:33;;;;;;;26.40;15.13;;;22.30;58.70;;;;;;4987721;28;20125;-73
2022/12/30 13:21:05;;;;;;;23.95;14.73;;;22.40;58.70;;;;;;4987863;28;20045;-75
2022/12/30 13:23:41;;;;;;;24.38;14.48;;;22.40;59.20;;;;;;4988512;28;20039;-74
2022/12/30 13:26:07;;;;;;;25.50;14.95;;;22.50;62.10;;;;;;4988479;28;20031;-74
2022/12/30 13:28:35;;;;;;;20.85;14.13;;;22.40;63.80;;;;;;4988956;28;20048;-72
2022/12/30 13:31:25;;;;;;;23.02;14.77;;;22.40;64.20;;;;;;4986129;28;20107;-69
2022/12/30 13:34:00;;;;;;;24.08;14.23;;;22.50;63.50;;;;;;4991734;28;20034;-74
2022/12/30 13:36:53;;;;;;;24.45;13.50;;;22.50;62.70;;;;;;5002993;28;20520;-71
2022/12/30 13:39:38;;;;;;;22.60;14.68;;;22.60;62.20;;;;;;5060487;28;20497;-71
2022/12/30 13:42:38;;;;;;;19.67;12.90;;;22.50;61.70;;;;;;5079543;28;20041;-70
2022/12/30 13:45:32;;;;;;;21.38;14.80;;;22.60;61.50;;;;;;5076170;28;20111;-69
2022/12/30 13:48:02;;;;;;;22.85;14.88;;;22.60;61.20;;;;;;5089522;28;20115;-69